Time;durP1;ratioP1;P1;durP2;ratioP2;P2;SDS_P1;SDS_P2;PMS_P1;PMS_P2;Temp;Humidity;BMP_temperature;BMP_pressure;BME280_temperature;BME280_humidity;BME280_pressure;Samples;Min_cycle;Max_cycle;Signal;HPM_P1;HPM_P2
2023/11/10 00:10:47;;;;;;;4.80;3.67;;;;;;;;;;5055612;27;20767;-58
2023/11/10 00:13:15;;;;;;;5.53;4.07;;;;;;;;;;5007356;28;20526;-57
2023/11/10 00:15:40;;;;;;;6.72;4.63;;;;;;;;;;5019173;28;20034;-56
2023/11/10 00:18:06;;;;;;;5.88;3.92;;;;;;;;;;5013678;28;20291;-56
2023/11/10 00:20:31;;;;;;;5.97;4.28;;;;;;;;;;5015118;28;20041;-56
2023/11/10 00:22:56;;;;;;;5.75;4.07;;;;;;;;;;5024613;23;20046;-56
2023/11/10 00:25:22;;;;;;;6.90;4.07;;;;;;;;;;4985568;28;20092;-54
2023/11/10 00:27:47;;;;;;;6.10;3.90;;;;;;;;;;4994277;28;20272;-54
2023/11/10 00:30:13;;;;;;;5.17;4.13;;;;;;;;;;5000959;28;20046;-57
2023/11/10 00:32:39;;;;;;;5.57;3.80;;;;;;;;;;5011550;28;20287;-54
2023/11/10 00:35:05;;;;;;;6.75;4.38;;;;;;;;;;5011158;28;20037;-54
2023/11/10 00:37:31;;;;;;;5.60;3.95;;;;;;;;;;5045631;23;20127;-58
2023/11/10 00:39:57;;;;;;;5.93;4.03;;;;;;;;;;5025087;28;20054;-58
2023/11/10 00:42:23;;;;;;;5.53;3.95;;;;;;;;;;5026543;28;20076;-57
2023/11/10 00:44:48;;;;;;;5.25;3.80;;;;;;;;;;5026346;28;20060;-56
2023/11/10 00:47:13;;;;;;;5.22;3.72;;;;;;;;;;5025026;28;20071;-57
2023/11/10 00:49:39;;;;;;;5.95;4.20;;;;;;;;;;5027281;28;20033;-57
2023/11/10 00:52:04;;;;;;;5.75;3.78;;;;;;;;;;5025054;28;20040;-58
2023/11/10 00:54:29;;;;;;;5.45;3.53;;;;;;;;;;5024776;28;20072;-58
2023/11/10 00:56:55;;;;;;;5.50;3.83;;;;;;;;;;5025466;28;20099;-58
2023/11/10 00:59:20;;;;;;;6.50;3.97;;;;;;;;;;5026026;28;20045;-56
2023/11/10 01:01:47;;;;;;;5.37;3.70;;;;;;;;;;5025489;28;22065;-56
2023/11/10 01:04:12;;;;;;;6.10;4.05;;;;;;;;;;5024597;28;20399;-57
2023/11/10 01:06:37;;;;;;;5.63;3.80;;;;;;;;;;5025566;28;20045;-57
2023/11/10 01:09:03;;;;;;;6.05;3.92;;;;;;;;;;5029798;28;20554;-57
2023/11/10 01:11:28;;;;;;;5.15;3.70;;;;;;;;;;5013332;28;20026;-58
2023/11/10 01:13:54;;;;;;;5.13;3.70;;;;;;;;;;5010638;28;20053;-58
2023/11/10 01:16:19;;;;;;;5.18;3.60;;;;;;;;;;5014780;28;20296;-57
2023/11/10 01:18:44;;;;;;;4.78;3.70;;;;;;;;;;5013976;28;20221;-57
2023/11/10 01:21:10;;;;;;;5.13;3.67;;;;;;;;;;5018040;28;20119;-57
2023/11/10 01:23:35;;;;;;;5.15;3.50;;;;;;;;;;5017858;28;20285;-57
2023/11/10 01:26:01;;;;;;;4.95;3.63;;;;;;;;;;5017042;28;20529;-58
2023/11/10 01:28:26;;;;;;;5.10;3.70;;;;;;;;;;5027125;28;20120;-57
2023/11/10 01:30:52;;;;;;;4.47;3.55;;;;;;;;;;5015685;28;20041;-57
2023/11/10 01:33:18;;;;;;;5.63;3.63;;;;;;;;;;5018335;28;20132;-57
2023/11/10 01:35:44;;;;;;;4.35;3.50;;;;;;;;;;5027060;28;20037;-57
2023/11/10 01:38:09;;;;;;;4.57;3.38;;;;;;;;;;5005208;28;20046;-57
2023/11/10 01:40:41;;;;;;;4.63;3.30;;;;;;;;;;4987992;28;20527;-57
2023/11/10 01:43:07;;;;;;;5.82;3.80;;;;;;;;;;5014374;28;20037;-57
2023/11/10 01:45:32;;;;;;;5.38;3.75;;;;;;;;;;5006351;28;20079;-57
2023/11/10 01:47:58;;;;;;;5.20;3.88;;;;;;;;;;5007499;28;20037;-57
2023/11/10 01:50:24;;;;;;;4.80;3.55;;;;;;;;;;5001341;28;20035;-58
2023/11/10 01:52:49;;;;;;;5.30;3.58;;;;;;;;;;5007087;28;20071;-57
2023/11/10 01:55:15;;;;;;;4.45;3.15;;;;;;;;;;5011579;28;20054;-57
2023/11/10 01:57:40;;;;;;;5.05;3.47;;;;;;;;;;5006354;28;20417;-57
2023/11/10 02:00:06;;;;;;;5.38;3.35;;;;;;;;;;5003844;28;20058;-57
2023/11/10 02:02:32;;;;;;;5.80;3.83;;;;;;;;;;5016524;28;20465;-57
2023/11/10 02:04:57;;;;;;;4.85;3.55;;;;;;;;;;5007766;28;20065;-57
2023/11/10 02:07:22;;;;;;;5.63;3.70;;;;;;;;;;5007255;28;20638;-57
2023/11/10 02:09:48;;;;;;;5.40;3.70;;;;;;;;;;5006961;28;20119;-57
2023/11/10 02:12:13;;;;;;;5.15;3.70;;;;;;;;;;5006383;28;20272;-56
2023/11/10 02:14:38;;;;;;;4.95;3.63;;;;;;;;;;4994166;28;20045;-57
2023/11/10 02:17:03;;;;;;;5.13;3.50;;;;;;;;;;4987578;28;20404;-58
2023/11/10 02:19:29;;;;;;;4.88;3.42;;;;;;;;;;4996767;28;20298;-57
2023/11/10 02:21:54;;;;;;;4.57;3.25;;;;;;;;;;5005261;28;20141;-57
2023/11/10 02:24:20;;;;;;;4.60;3.17;;;;;;;;;;5006256;28;20038;-57
2023/11/10 02:26:45;;;;;;;4.22;3.25;;;;;;;;;;5007027;28;20671;-57
2023/11/10 02:29:11;;;;;;;5.07;3.40;;;;;;;;;;4990025;28;20030;-57
2023/11/10 02:31:36;;;;;;;4.60;3.50;;;;;;;;;;5001046;28;20049;-57
2023/11/10 02:34:01;;;;;;;5.03;3.55;;;;;;;;;;4995171;28;20049;-57
2023/11/10 02:36:29;;;;;;;4.18;3.28;;;;;;;;;;5003924;28;20046;-57
2023/11/10 02:38:54;;;;;;;4.88;3.72;;;;;;;;;;4992894;28;20108;-57
2023/11/10 02:41:19;;;;;;;4.60;3.23;;;;;;;;;;4989296;28;20033;-57
2023/11/10 02:43:44;;;;;;;5.00;3.17;;;;;;;;;;5005949;28;20277;-57
2023/11/10 02:46:09;;;;;;;5.00;3.30;;;;;;;;;;4995800;28;20313;-57
2023/11/10 02:48:35;;;;;;;4.78;3.40;;;;;;;;;;4987413;28;20274;-57
2023/11/10 02:51:00;;;;;;;4.43;3.30;;;;;;;;;;4998102;28;20073;-57
2023/11/10 02:53:44;;;;;;;4.20;3.20;;;;;;;;;;5003826;28;20037;-56
2023/11/10 02:56:09;;;;;;;5.03;3.50;;;;;;;;;;5002927;28;20038;-57
2023/11/10 02:58:35;;;;;;;3.53;2.90;;;;;;;;;;4995869;28;20058;-57
2023/11/10 03:01:00;;;;;;;5.47;3.45;;;;;;;;;;4989604;28;20404;-58
2023/11/10 03:03:25;;;;;;;4.93;3.00;;;;;;;;;;5005457;28;20048;-57
2023/11/10 03:05:52;;;;;;;4.50;2.93;;;;;;;;;;4988199;28;20128;-57
2023/11/10 03:08:17;;;;;;;4.20;3.10;;;;;;;;;;4997923;28;20672;-57
2023/11/10 03:10:42;;;;;;;3.90;3.00;;;;;;;;;;5000559;28;20052;-56
2023/11/10 03:13:09;;;;;;;4.20;3.00;;;;;;;;;;4994900;28;20285;-57
2023/11/10 03:15:36;;;;;;;4.70;3.15;;;;;;;;;;5038814;28;20395;-57
2023/11/10 03:18:01;;;;;;;4.07;3.13;;;;;;;;;;4997814;28;20045;-56
2023/11/10 03:20:26;;;;;;;4.75;3.20;;;;;;;;;;4986085;28;20157;-56
2023/11/10 03:22:52;;;;;;;5.75;3.25;;;;;;;;;;4997368;28;20073;-57
2023/11/10 03:25:17;;;;;;;4.15;3.10;;;;;;;;;;5004434;28;20034;-57
2023/11/10 03:27:42;;;;;;;4.53;3.30;;;;;;;;;;4995009;28;20044;-57
2023/11/10 03:30:09;;;;;;;4.47;2.90;;;;;;;;;;5005076;28;20037;-57
2023/11/10 03:32:34;;;;;;;4.07;3.00;;;;;;;;;;5006766;28;20293;-55
2023/11/10 03:34:59;;;;;;;4.38;3.20;;;;;;;;;;5004871;28;20423;-57
2023/11/10 03:37:24;;;;;;;4.83;3.17;;;;;;;;;;5004712;28;20458;-57
2023/11/10 03:39:50;;;;;;;5.43;3.37;;;;;;;;;;5005485;28;20308;-57
2023/11/10 03:42:15;;;;;;;3.85;3.10;;;;;;;;;;5012394;28;20284;-58
2023/11/10 03:44:41;;;;;;;4.43;3.20;;;;;;;;;;5008959;28;20514;-57
2023/11/10 03:47:06;;;;;;;4.05;3.00;;;;;;;;;;5009331;28;20042;-58
2023/11/10 03:49:33;;;;;;;4.30;3.40;;;;;;;;;;4992830;28;20566;-57
2023/11/10 03:51:58;;;;;;;4.30;2.92;;;;;;;;;;5004426;28;20288;-57
2023/11/10 03:54:24;;;;;;;4.33;3.23;;;;;;;;;;5005458;28;20034;-57
2023/11/10 03:56:50;;;;;;;4.63;2.92;;;;;;;;;;4984098;28;20278;-57
2023/11/10 03:59:15;;;;;;;4.32;3.03;;;;;;;;;;5004458;28;20431;-57
2023/11/10 04:01:40;;;;;;;3.77;2.73;;;;;;;;;;5001489;28;20129;-57
2023/11/10 04:04:07;;;;;;;4.63;2.95;;;;;;;;;;5024844;28;20276;-57
2023/11/10 04:06:33;;;;;;;4.53;3.30;;;;;;;;;;5004079;28;20045;-57
2023/11/10 04:08:58;;;;;;;4.25;3.05;;;;;;;;;;4999740;28;20329;-57
2023/11/10 04:11:24;;;;;;;4.22;3.30;;;;;;;;;;4990128;28;20021;-57
2023/11/10 04:13:49;;;;;;;4.55;2.90;;;;;;;;;;5016584;28;20036;-58
2023/11/10 04:16:16;;;;;;;4.05;3.10;;;;;;;;;;5003276;28;20022;-57
2023/11/10 04:18:41;;;;;;;4.20;3.10;;;;;;;;;;5004453;28;20451;-57
2023/11/10 04:21:06;;;;;;;4.20;3.00;;;;;;;;;;4999126;28;20419;-57
2023/11/10 04:23:32;;;;;;;4.17;3.07;;;;;;;;;;5010859;28;20406;-58
2023/11/10 04:25:57;;;;;;;3.08;2.60;;;;;;;;;;5023604;28;20256;-57
2023/11/10 04:28:24;;;;;;;5.93;3.10;;;;;;;;;;5005261;28;20084;-57
2023/11/10 04:30:49;;;;;;;4.10;2.63;;;;;;;;;;5022064;28;20343;-57
2023/11/10 04:33:14;;;;;;;4.07;2.75;;;;;;;;;;5005227;28;20112;-57
2023/11/10 04:35:39;;;;;;;4.40;2.90;;;;;;;;;;5031026;28;20021;-58
2023/11/10 04:38:05;;;;;;;3.60;2.73;;;;;;;;;;5012635;28;20276;-57
2023/11/10 04:40:30;;;;;;;3.90;2.70;;;;;;;;;;5017884;28;20458;-57
2023/11/10 04:42:56;;;;;;;3.77;2.80;;;;;;;;;;5023837;28;20263;-57
2023/11/10 04:45:22;;;;;;;3.70;2.80;;;;;;;;;;5029598;28;20257;-57
2023/11/10 04:47:51;;;;;;;3.80;2.70;;;;;;;;;;5008776;28;20475;-57
2023/11/10 04:50:16;;;;;;;3.47;2.60;;;;;;;;;;5020109;28;20104;-57
2023/11/10 04:52:41;;;;;;;5.90;2.72;;;;;;;;;;5028610;28;20109;-57
2023/11/10 04:55:07;;;;;;;3.53;2.60;;;;;;;;;;5023669;28;20465;-57
2023/11/10 04:57:33;;;;;;;3.58;2.70;;;;;;;;;;5021577;28;20606;-57
2023/11/10 05:00:00;;;;;;;3.90;2.90;;;;;;;;;;5012559;28;20031;-58
2023/11/10 05:02:28;;;;;;;3.83;2.70;;;;;;;;;;5013958;28;20111;-57
2023/11/10 05:04:53;;;;;;;3.58;2.80;;;;;;;;;;5024342;28;24727;-58
2023/11/10 05:07:18;;;;;;;3.42;2.60;;;;;;;;;;5023949;28;20058;-57
2023/11/10 05:09:44;;;;;;;3.47;2.58;;;;;;;;;;5008630;28;20484;-56
2023/11/10 05:12:09;;;;;;;4.57;2.97;;;;;;;;;;5008269;28;20140;-57
2023/11/10 05:14:39;;;;;;;3.65;2.85;;;;;;;;;;5024321;28;20065;-57
2023/11/10 05:17:04;;;;;;;3.63;2.60;;;;;;;;;;5026417;28;20052;-56
2023/11/10 05:19:30;;;;;;;3.40;2.60;;;;;;;;;;5026381;28;20122;-56
2023/11/10 05:21:55;;;;;;;4.35;3.00;;;;;;;;;;5017871;28;20050;-57
2023/11/10 05:24:20;;;;;;;4.20;2.80;;;;;;;;;;5020258;28;20041;-56
2023/11/10 05:26:46;;;;;;;3.65;2.97;;;;;;;;;;5011788;28;20032;-57
2023/11/10 05:29:11;;;;;;;3.95;2.85;;;;;;;;;;5022107;28;20061;-56
2023/11/10 05:31:36;;;;;;;3.90;2.80;;;;;;;;;;5015568;28;20037;-57
2023/11/10 05:34:03;;;;;;;3.50;2.50;;;;;;;;;;5026951;28;20065;-58
2023/11/10 05:36:29;;;;;;;3.75;2.65;;;;;;;;;;5017913;28;20069;-57
2023/11/10 05:38:54;;;;;;;4.15;2.90;;;;;;;;;;5023550;28;20466;-57
2023/11/10 05:41:19;;;;;;;3.97;2.72;;;;;;;;;;5027754;28;20188;-57
2023/11/10 05:43:46;;;;;;;3.83;2.60;;;;;;;;;;5027695;28;20029;-57
2023/11/10 05:46:12;;;;;;;3.42;2.90;;;;;;;;;;5024261;28;20099;-57
2023/11/10 05:48:37;;;;;;;4.00;2.53;;;;;;;;;;5025270;28;20037;-60
2023/11/10 05:51:03;;;;;;;3.67;2.38;;;;;;;;;;5025176;28;20037;-58
2023/11/10 05:53:28;;;;;;;3.05;2.47;;;;;;;;;;5021598;28;20158;-57
2023/11/10 05:55:54;;;;;;;3.22;2.40;;;;;;;;;;5017658;28;20034;-57
2023/11/10 05:58:19;;;;;;;3.28;2.33;;;;;;;;;;5019168;28;20569;-57
2023/11/10 06:00:45;;;;;;;3.67;2.58;;;;;;;;;;5024571;28;20048;-56
2023/11/10 06:03:10;;;;;;;3.45;2.38;;;;;;;;;;5015892;28;20037;-56
2023/11/10 06:05:35;;;;;;;3.47;2.70;;;;;;;;;;5026279;28;20033;-57
2023/11/10 06:08:01;;;;;;;3.15;2.65;;;;;;;;;;5017722;28;20483;-57
2023/11/10 06:10:26;;;;;;;3.58;2.60;;;;;;;;;;5019705;28;20033;-57
2023/11/10 06:12:51;;;;;;;3.58;2.45;;;;;;;;;;5023759;28;20033;-58
2023/11/10 06:15:19;;;;;;;3.50;2.43;;;;;;;;;;5020161;28;20058;-58
2023/11/10 06:17:44;;;;;;;3.08;2.45;;;;;;;;;;5025922;28;20276;-58
2023/11/10 06:20:10;;;;;;;3.50;2.40;;;;;;;;;;5023013;28;20053;-56
2023/11/10 06:22:37;;;;;;;2.83;2.10;;;;;;;;;;5030529;28;20116;-56
2023/11/10 06:25:03;;;;;;;3.45;2.67;;;;;;;;;;5023804;28;20065;-56
2023/11/10 06:27:29;;;;;;;3.45;2.38;;;;;;;;;;5017834;28;20179;-56
2023/11/10 06:29:55;;;;;;;3.97;2.47;;;;;;;;;;5011918;28;20136;-57
2023/11/10 06:32:20;;;;;;;8.10;2.47;;;;;;;;;;5009080;28;20033;-57
2023/11/10 06:34:46;;;;;;;3.70;2.50;;;;;;;;;;5011327;28;20183;-56
2023/11/10 06:37:12;;;;;;;3.22;2.22;;;;;;;;;;5010381;28;20076;-57
2023/11/10 06:39:38;;;;;;;4.05;2.53;;;;;;;;;;5011090;28;20121;-56
2023/11/10 06:42:04;;;;;;;4.53;2.58;;;;;;;;;;5011316;28;20034;-57
2023/11/10 06:44:29;;;;;;;3.53;2.30;;;;;;;;;;5011045;28;20349;-56
2023/11/10 06:46:55;;;;;;;4.90;2.23;;;;;;;;;;5010732;28;20415;-56
2023/11/10 06:49:20;;;;;;;3.22;2.08;;;;;;;;;;5010266;28;20304;-57
2023/11/10 06:51:46;;;;;;;4.00;2.30;;;;;;;;;;5009897;28;20064;-58
2023/11/10 06:54:11;;;;;;;4.32;2.40;;;;;;;;;;5010773;28;20315;-56
2023/11/10 06:56:37;;;;;;;2.90;2.37;;;;;;;;;;5011635;28;20062;-56
2023/11/10 06:59:02;;;;;;;3.40;2.30;;;;;;;;;;5010758;28;20307;-56
2023/11/10 07:01:28;;;;;;;3.33;2.30;;;;;;;;;;5024686;28;20187;-57
2023/11/10 07:03:54;;;;;;;3.25;2.30;;;;;;;;;;5008593;28;20026;-57
2023/11/10 07:06:19;;;;;;;3.30;2.20;;;;;;;;;;5010144;28;20052;-57
2023/11/10 07:08:45;;;;;;;3.80;2.17;;;;;;;;;;5008699;28;20037;-58
2023/11/10 07:11:12;;;;;;;3.58;2.25;;;;;;;;;;5007852;28;20045;-58
2023/11/10 07:13:38;;;;;;;3.63;2.03;;;;;;;;;;5011558;28;20041;-58
2023/11/10 07:16:03;;;;;;;3.20;2.28;;;;;;;;;;5011652;28;20052;-57
2023/11/10 07:18:31;;;;;;;4.85;2.30;;;;;;;;;;5010174;28;20060;-58
2023/11/10 07:20:56;;;;;;;2.50;1.92;;;;;;;;;;5009771;28;20101;-57
2023/11/10 07:23:21;;;;;;;2.95;1.98;;;;;;;;;;5009985;28;20037;-57
2023/11/10 07:25:46;;;;;;;2.97;2.03;;;;;;;;;;5013541;28;20064;-57
2023/11/10 07:28:12;;;;;;;3.78;2.13;;;;;;;;;;5008774;28;20037;-57
2023/11/10 07:30:39;;;;;;;4.00;2.42;;;;;;;;;;5014194;28;20068;-57
2023/11/10 07:33:05;;;;;;;3.00;2.20;;;;;;;;;;5009527;28;20048;-57
2023/11/10 07:35:32;;;;;;;3.17;2.47;;;;;;;;;;5010249;28;20419;-56
2023/11/10 07:37:57;;;;;;;4.00;2.20;;;;;;;;;;5005189;28;20045;-55
2023/11/10 07:40:22;;;;;;;4.30;2.13;;;;;;;;;;5009447;28;20041;-56
2023/11/10 07:42:48;;;;;;;3.75;2.35;;;;;;;;;;5009155;28;20362;-56
2023/11/10 07:45:14;;;;;;;3.05;2.13;;;;;;;;;;5024206;28;20042;-56
2023/11/10 07:47:50;;;;;;;3.88;2.03;;;;;;;;;;5010479;28;20042;-57
2023/11/10 07:50:16;;;;;;;4.00;2.15;;;;;;;;;;5011946;28;20624;-56
2023/11/10 07:52:41;;;;;;;3.20;2.08;;;;;;;;;;5010935;28;20034;-56
2023/11/10 07:55:07;;;;;;;3.58;2.10;;;;;;;;;;5009024;28;20577;-56
2023/11/10 07:57:50;;;;;;;5.18;2.33;;;;;;;;;;5009599;28;20163;-56
2023/11/10 08:00:19;;;;;;;3.00;2.05;;;;;;;;;;5011167;28;20144;-56
2023/11/10 08:02:46;;;;;;;3.83;2.30;;;;;;;;;;5010031;28;20041;-56
2023/11/10 08:05:11;;;;;;;3.97;2.30;;;;;;;;;;5007176;28;20038;-55
2023/11/10 08:07:36;;;;;;;3.78;2.15;;;;;;;;;;5008740;28;20526;-56
2023/11/10 08:10:05;;;;;;;3.30;2.28;;;;;;;;;;5009534;28;20037;-57
2023/11/10 08:12:30;;;;;;;3.50;2.30;;;;;;;;;;5009766;28;20208;-56
2023/11/10 08:14:56;;;;;;;3.80;2.05;;;;;;;;;;5008325;28;20542;-56
2023/11/10 08:17:22;;;;;;;3.17;2.10;;;;;;;;;;5008813;28;20041;-56
2023/11/10 08:19:47;;;;;;;3.22;2.13;;;;;;;;;;5008409;28;20534;-57
2023/11/10 08:22:13;;;;;;;3.03;2.17;;;;;;;;;;5010971;28;20037;-56
2023/11/10 08:24:39;;;;;;;4.53;2.10;;;;;;;;;;5013467;28;20025;-57
2023/11/10 08:27:06;;;;;;;3.80;2.03;;;;;;;;;;5013595;28;20048;-57
2023/11/10 08:29:31;;;;;;;3.70;2.40;;;;;;;;;;5011962;28;20420;-56
2023/11/10 08:31:57;;;;;;;3.97;2.25;;;;;;;;;;5011999;28;20154;-57
2023/11/10 08:34:22;;;;;;;3.60;2.20;;;;;;;;;;5013029;28;20049;-54
2023/11/10 08:36:50;;;;;;;5.72;2.42;;;;;;;;;;5011865;28;20685;-55
2023/11/10 08:39:20;;;;;;;2.35;2.00;;;;;;;;;;5011764;28;20077;-56
2023/11/10 08:41:48;;;;;;;4.45;2.20;;;;;;;;;;5010040;28;20119;-57
2023/11/10 08:44:14;;;;;;;3.97;2.00;;;;;;;;;;5013712;28;20091;-56
2023/11/10 08:46:39;;;;;;;3.63;2.20;;;;;;;;;;5012529;28;20042;-56
2023/11/10 08:49:05;;;;;;;3.50;2.27;;;;;;;;;;5027533;28;20084;-56
2023/11/10 08:51:30;;;;;;;4.32;2.25;;;;;;;;;;5010975;28;20299;-57
2023/11/10 08:53:57;;;;;;;4.00;2.10;;;;;;;;;;5013210;28;20049;-56
2023/11/10 08:56:22;;;;;;;3.65;2.08;;;;;;;;;;5010941;28;20284;-57
2023/11/10 08:58:47;;;;;;;4.32;2.13;;;;;;;;;;5012859;28;20444;-57
2023/11/10 09:01:12;;;;;;;2.95;2.05;;;;;;;;;;5011715;28;20084;-56
2023/11/10 09:03:38;;;;;;;2.90;1.90;;;;;;;;;;5010658;28;20128;-56
2023/11/10 09:06:04;;;;;;;3.20;2.15;;;;;;;;;;5025827;28;20284;-59
2023/11/10 09:08:30;;;;;;;3.53;1.90;;;;;;;;;;5014315;28;20221;-58
2023/11/10 09:10:56;;;;;;;4.63;2.10;;;;;;;;;;5011048;28;20034;-54
2023/11/10 09:13:21;;;;;;;3.17;2.35;;;;;;;;;;5026944;28;20171;-55
2023/11/10 09:15:46;;;;;;;3.00;1.80;;;;;;;;;;5013100;28;20068;-55
2023/11/10 09:18:12;;;;;;;3.47;2.40;;;;;;;;;;5010560;28;20287;-56
2023/11/10 09:20:37;;;;;;;4.18;2.25;;;;;;;;;;5011222;28;20296;-57
2023/11/10 09:23:03;;;;;;;3.28;2.20;;;;;;;;;;5022650;28;20126;-57
2023/11/10 09:25:29;;;;;;;4.88;2.20;;;;;;;;;;5009209;28;20474;-56
2023/11/10 09:27:56;;;;;;;4.35;2.28;;;;;;;;;;5011543;28;20107;-56
2023/11/10 09:30:21;;;;;;;4.25;2.47;;;;;;;;;;5011790;28;20128;-56
2023/11/10 09:32:47;;;;;;;4.03;2.30;;;;;;;;;;5013183;28;20128;-56
2023/11/10 09:35:14;;;;;;;3.25;2.05;;;;;;;;;;5010709;28;20076;-57
2023/11/10 09:37:40;;;;;;;4.55;2.08;;;;;;;;;;5015469;28;20087;-56
2023/11/10 09:40:07;;;;;;;3.95;2.13;;;;;;;;;;5010531;28;20041;-56
2023/11/10 09:42:32;;;;;;;2.92;1.92;;;;;;;;;;5010451;28;20028;-58
2023/11/10 09:44:58;;;;;;;3.13;1.92;;;;;;;;;;5008823;28;20018;-57
2023/11/10 09:47:24;;;;;;;4.55;2.15;;;;;;;;;;5025624;28;20083;-57
2023/11/10 09:49:49;;;;;;;3.47;2.38;;;;;;;;;;5011623;28;20057;-57
2023/11/10 09:52:15;;;;;;;3.25;2.10;;;;;;;;;;5011714;28;20064;-56
2023/11/10 09:54:42;;;;;;;4.25;2.10;;;;;;;;;;5010378;28;20422;-56
2023/11/10 09:57:07;;;;;;;2.95;2.05;;;;;;;;;;5010335;28;20063;-56
2023/11/10 09:59:33;;;;;;;5.67;2.33;;;;;;;;;;5010821;28;20999;-56
2023/11/10 10:02:00;;;;;;;3.17;2.03;;;;;;;;;;5026731;28;20334;-56
2023/11/10 10:04:27;;;;;;;4.35;2.05;;;;;;;;;;5010739;28;20359;-56
2023/11/10 10:06:52;;;;;;;2.88;1.90;;;;;;;;;;5012116;28;20021;-57
2023/11/10 10:09:18;;;;;;;4.18;2.15;;;;;;;;;;5017536;28;20467;-56
2023/11/10 10:11:43;;;;;;;3.30;2.30;;;;;;;;;;5011640;28;20097;-57
2023/11/10 10:14:08;;;;;;;3.58;2.33;;;;;;;;;;5011109;28;20020;-57
2023/11/10 10:16:34;;;;;;;3.88;1.98;;;;;;;;;;5010646;28;20022;-55
2023/11/10 10:19:01;;;;;;;3.25;2.10;;;;;;;;;;5026934;28;20037;-56
2023/11/10 10:21:27;;;;;;;2.72;1.92;;;;;;;;;;5010033;28;20052;-56
2023/11/10 10:23:53;;;;;;;4.18;2.20;;;;;;;;;;5009581;28;20491;-56
2023/11/10 10:26:20;;;;;;;3.65;2.05;;;;;;;;;;5010163;28;20045;-56
2023/11/10 10:28:45;;;;;;;5.25;2.08;;;;;;;;;;5014267;28;20076;-58
2023/11/10 10:31:11;;;;;;;5.00;2.00;;;;;;;;;;5011222;28;20041;-56
2023/11/10 10:33:36;;;;;;;3.10;2.08;;;;;;;;;;5011332;28;20091;-57
2023/11/10 10:36:03;;;;;;;3.95;2.22;;;;;;;;;;5012696;28;20411;-58
2023/11/10 10:38:29;;;;;;;3.65;1.95;;;;;;;;;;5011523;28;20125;-56
2023/11/10 10:40:58;;;;;;;3.38;2.13;;;;;;;;;;5013180;28;20060;-56
2023/11/10 10:43:23;;;;;;;2.90;1.90;;;;;;;;;;5027593;28;20050;-56
2023/11/10 10:45:48;;;;;;;2.50;1.90;;;;;;;;;;5009543;28;20231;-56
2023/11/10 10:48:14;;;;;;;4.05;2.25;;;;;;;;;;5010854;28;22449;-58
2023/11/10 10:50:39;;;;;;;3.55;2.13;;;;;;;;;;5011963;28;20033;-61
2023/11/10 10:53:06;;;;;;;3.45;2.00;;;;;;;;;;5015137;28;20042;-57
2023/11/10 10:55:31;;;;;;;2.72;1.92;;;;;;;;;;5008983;28;20025;-57
2023/11/10 10:57:57;;;;;;;5.07;2.00;;;;;;;;;;5011005;28;20045;-57
2023/11/10 11:00:23;;;;;;;4.50;2.20;;;;;;;;;;5019153;28;20397;-57
2023/11/10 11:02:58;;;;;;;3.58;2.10;;;;;;;;;;5025629;28;20143;-57
2023/11/10 11:05:42;;;;;;;3.75;2.20;;;;;;;;;;5009282;28;20052;-57
2023/11/10 11:08:27;;;;;;;3.50;2.10;;;;;;;;;;5008158;28;20042;-57
2023/11/10 11:10:57;;;;;;;2.88;2.10;;;;;;;;;;5007195;28;20041;-57
2023/11/10 11:13:41;;;;;;;3.67;2.10;;;;;;;;;;5015156;28;20084;-56
2023/11/10 11:16:26;;;;;;;4.53;2.17;;;;;;;;;;5009747;28;20052;-56
2023/11/10 11:18:56;;;;;;;2.90;1.90;;;;;;;;;;5009280;28;20042;-57
2023/11/10 11:21:22;;;;;;;2.72;1.73;;;;;;;;;;5015103;28;20124;-56
2023/11/10 11:23:50;;;;;;;4.15;2.10;;;;;;;;;;5008289;28;20044;-57
2023/11/10 11:26:16;;;;;;;3.78;2.00;;;;;;;;;;5014059;28;20127;-57
2023/11/10 11:28:41;;;;;;;5.18;2.17;;;;;;;;;;5010753;28;20037;-56
2023/11/10 11:31:08;;;;;;;4.60;2.10;;;;;;;;;;5009635;28;20033;-56
2023/11/10 11:33:34;;;;;;;3.75;2.20;;;;;;;;;;5024301;28;20378;-57
2023/11/10 11:36:00;;;;;;;3.03;1.83;;;;;;;;;;5008842;28;20113;-56
2023/11/10 11:38:30;;;;;;;3.63;1.90;;;;;;;;;;5011996;28;20882;-57
2023/11/10 11:40:57;;;;;;;;;;;;;;;;;;5008991;28;20034;-56
2023/11/10 11:43:25;;;;;;;3.10;1.85;;;;;;;;;;5008552;28;20374;-56
2023/11/10 11:45:59;;;;;;;3.90;2.15;;;;;;;;;;5009208;28;20022;-57
2023/11/10 11:48:24;;;;;;;3.83;1.83;;;;;;;;;;5009900;28;20040;-60
2023/11/10 11:50:52;;;;;;;4.07;1.80;;;;;;;;;;5008867;28;20025;-57
2023/11/10 11:53:19;;;;;;;3.55;1.88;;;;;;;;;;5009897;28;20021;-56
2023/11/10 11:55:57;;;;;;;4.18;2.20;;;;;;;;;;5007454;28;20029;-56
2023/11/10 11:58:22;;;;;;;3.45;2.00;;;;;;;;;;5024172;28;20209;-57
2023/11/10 12:00:48;;;;;;;3.33;1.95;;;;;;;;;;5013792;28;20076;-56
2023/11/10 12:03:13;;;;;;;2.85;2.10;;;;;;;;;;5012987;28;20095;-56
2023/11/10 12:05:39;;;;;;;3.92;1.92;;;;;;;;;;5019017;28;20036;-57
2023/11/10 12:08:05;;;;;;;2.97;2.00;;;;;;;;;;5011623;28;20221;-56
2023/11/10 12:10:30;;;;;;;3.53;1.95;;;;;;;;;;5015158;28;20061;-55
2023/11/10 12:12:56;;;;;;;3.97;2.10;;;;;;;;;;5014686;28;20033;-56
2023/11/10 12:15:22;;;;;;;3.10;1.93;;;;;;;;;;5028234;28;20046;-56
2023/11/10 12:17:47;;;;;;;3.90;2.00;;;;;;;;;;5013324;28;20265;-57
2023/11/10 12:20:13;;;;;;;4.80;2.33;;;;;;;;;;5008051;28;20057;-57
2023/11/10 12:22:38;;;;;;;3.83;2.07;;;;;;;;;;5017907;28;20034;-57
2023/11/10 12:25:03;;;;;;;3.57;1.93;;;;;;;;;;5005945;28;20265;-56
2023/11/10 12:27:32;;;;;;;4.30;2.45;;;;;;;;;;5016029;28;20645;-57
2023/11/10 12:29:57;;;;;;;4.00;1.95;;;;;;;;;;5018372;28;20425;-57
2023/11/10 12:32:25;;;;;;;10.27;2.77;;;;;;;;;;5014761;28;20083;-56
2023/11/10 12:34:51;;;;;;;12.50;2.50;;;;;;;;;;5023784;28;20283;-61
2023/11/10 12:37:16;;;;;;;5.78;2.40;;;;;;;;;;5014290;28;20034;-56
2023/11/10 12:39:42;;;;;;;7.50;2.40;;;;;;;;;;5024828;28;20037;-56
2023/11/10 12:42:07;;;;;;;6.20;2.20;;;;;;;;;;5021972;28;20105;-56
2023/11/10 12:44:33;;;;;;;7.25;2.63;;;;;;;;;;5021172;28;20520;-55
2023/11/10 12:47:00;;;;;;;5.45;3.20;;;;;;;;;;5018193;28;20026;-58
2023/11/10 12:49:26;;;;;;;4.28;3.40;;;;;;;;;;5022297;28;20041;-57
2023/11/10 12:51:58;;;;;;;5.57;3.05;;;;;;;;;;5018953;28;20033;-56
2023/11/10 12:54:26;;;;;;;5.80;2.83;;;;;;;;;;5020958;28;20049;-57
2023/11/10 12:56:52;;;;;;;5.82;3.50;;;;;;;;;;5018594;28;20479;-56
2023/11/10 12:59:29;;;;;;;6.55;3.28;;;;;;;;;;5022668;28;20075;-57
2023/11/10 13:01:55;;;;;;;5.55;3.30;;;;;;;;;;5020251;28;20038;-55
2023/11/10 13:04:20;;;;;;;5.45;3.08;;;;;;;;;;5021154;28;20043;-56
2023/11/10 13:06:46;;;;;;;4.45;3.28;;;;;;;;;;5022145;28;20453;-56
2023/11/10 13:09:17;;;;;;;5.25;3.17;;;;;;;;;;5022483;28;20128;-56
2023/11/10 13:11:43;;;;;;;5.43;3.53;;;;;;;;;;5019701;28;20120;-56
2023/11/10 13:14:08;;;;;;;5.30;3.15;;;;;;;;;;5014730;28;20124;-56
2023/11/10 13:16:33;;;;;;;4.50;3.22;;;;;;;;;;5015607;28;20404;-56
2023/11/10 13:18:58;;;;;;;6.53;3.50;;;;;;;;;;5015367;28;20049;-56
2023/11/10 13:21:24;;;;;;;5.70;3.60;;;;;;;;;;5014475;28;20826;-55
2023/11/10 13:23:50;;;;;;;6.38;3.70;;;;;;;;;;5018699;28;20319;-54
2023/11/10 13:26:19;;;;;;;7.82;3.95;;;;;;;;;;5015791;28;20108;-57
2023/11/10 13:28:44;;;;;;;5.35;3.53;;;;;;;;;;5018738;28;20637;-57
2023/11/10 13:31:09;;;;;;;8.10;3.83;;;;;;;;;;5012736;28;20092;-56
2023/11/10 13:33:35;;;;;;;6.80;3.70;;;;;;;;;;5016405;28;20307;-55
2023/11/10 13:36:00;;;;;;;7.95;3.50;;;;;;;;;;5012867;28;20101;-57
2023/11/10 13:38:26;;;;;;;7.68;4.07;;;;;;;;;;5016487;28;20041;-57
2023/11/10 13:40:51;;;;;;;5.28;4.18;;;;;;;;;;5013318;28;20117;-55
2023/11/10 13:43:19;;;;;;;8.75;4.60;;;;;;;;;;5018258;28;20034;-56
2023/11/10 13:45:45;;;;;;;6.30;3.88;;;;;;;;;;5014018;28;20085;-55
2023/11/10 13:48:11;;;;;;;6.67;4.10;;;;;;;;;;5014035;28;20037;-55
2023/11/10 13:50:37;;;;;;;6.78;3.83;;;;;;;;;;5014656;28;21150;-56
2023/11/10 13:53:03;;;;;;;6.15;3.85;;;;;;;;;;5015652;28;20037;-56
2023/11/10 13:55:28;;;;;;;6.60;4.00;;;;;;;;;;5017011;28;20034;-55
2023/11/10 13:57:53;;;;;;;6.47;4.23;;;;;;;;;;5013898;28;20148;-56
2023/11/10 14:00:19;;;;;;;5.75;3.78;;;;;;;;;;5016798;28;20304;-55
2023/11/10 14:02:44;;;;;;;9.18;4.30;;;;;;;;;;5012732;28;20042;-56
2023/11/10 14:05:11;;;;;;;5.80;3.73;;;;;;;;;;5013041;28;20037;-57
2023/11/10 14:07:36;;;;;;;6.70;3.33;;;;;;;;;;5013247;28;20284;-56
2023/11/10 14:10:02;;;;;;;6.25;3.90;;;;;;;;;;5014171;28;20095;-57
2023/11/10 14:12:27;;;;;;;6.68;4.40;;;;;;;;;;5016459;28;20033;-56
2023/11/10 14:14:52;;;;;;;8.23;5.47;;;;;;;;;;5014789;28;20041;-57
2023/11/10 14:17:18;;;;;;;6.60;5.53;;;;;;;;;;5011840;28;20115;-57
2023/11/10 14:19:43;;;;;;;6.32;4.85;;;;;;;;;;5017727;28;20068;-56
2023/11/10 14:22:09;;;;;;;7.13;5.20;;;;;;;;;;5013632;28;20166;-56
2023/11/10 14:24:34;;;;;;;6.68;4.95;;;;;;;;;;5026969;28;20040;-57
2023/11/10 14:27:00;;;;;;;6.50;4.53;;;;;;;;;;5015180;28;20041;-59
2023/11/10 14:29:25;;;;;;;6.20;4.30;;;;;;;;;;5015808;28;20038;-57
2023/11/10 14:31:51;;;;;;;6.82;4.05;;;;;;;;;;5016423;28;20033;-56
2023/11/10 14:34:16;;;;;;;7.65;4.20;;;;;;;;;;5018465;28;20038;-56
2023/11/10 14:36:42;;;;;;;5.65;4.07;;;;;;;;;;5014394;28;20531;-55
2023/11/10 14:39:07;;;;;;;6.57;4.00;;;;;;;;;;5017505;28;20049;-54
2023/11/10 14:41:34;;;;;;;5.15;3.58;;;;;;;;;;5014646;28;20529;-55
2023/11/10 14:44:00;;;;;;;5.65;4.10;;;;;;;;;;5016818;28;20040;-58
2023/11/10 14:46:26;;;;;;;6.50;3.80;;;;;;;;;;5013964;28;20037;-57